Fairport, NY (14450)

7:17 AM EST on January 30, 2015 (GMT -0500)
APRSWXNET Fairport NY US | Change Station
CLOSE
Current Station
Personal Weather Station
Location: Fairport, NY
Elevation: 600 ft
Nearby Weather Stations

Elev 600 ft 43.11 °N, 77.41 °W | Updated 43 minutes ago

Overcast
Overcast
27 °F
Feels Like 21 °F
N
5
Wind Variable Wind from North
Gusts 10.0 mph

Today
High -- | Low -- °F
--% Chance of Precip.
Yesterday
High -- | Low -- °F
Precip. -- in
7:27 AM 5:19 PM
Waxing Gibbous, 82% visible
Pressure 29.98 in
Visibility 6.0 miles
Clouds Few 1800 ft
Overcast 2300 ft
Windchill 21 °F
Dew Point 24 °F
Humidity 89%
Rainfall 0.01 in
Snow Depth Not available.
UV 0 out of 12
Pollen .10 out of 12
Air Quality Not available.
Flu Activity Not available.
METAR KROC 301154Z 31011KT 6SM -SN FEW018 OVC023 M02/M05 A2995 RMK AO2 SNE20B44 SLP152 PCPN VRY LGT 4/003 P0000 60005 70017 I6000 T10221050 11006 21022 51029

More Conditions Fewer Conditions

Pressure 29.98 in
Visibility 6.0 miles
Clouds Few 1800 ft
Overcast 2300 ft
Windchill 21 °F
Dew Point 24 °F
Humidity 89%
Rainfall 0.01 in
Snow Depth Not available.
UV 0 out of 12
Pollen .10 out of 12
Air Quality Not available.
Flu Activity Not available.
METAR KROC 301154Z 31011KT 6SM -SN FEW018 OVC023 M02/M05 A2995 RMK AO2 SNE20B44 SLP152 PCPN VRY LGT 4/003 P0000 60005 70017 I6000 T10221050 11006 21022 51029

More Conditions Fewer Conditions

10-Day Weather Forecast

Almanac

Astronomy

Jan. 30, 2015 Rise Set
Actual Time
Civil Twilight
Nautical Twilight
Astronomical Twilight
Moon
Length of Visible Light
Length of Day
Tomorrow will be .
, % of the Moon is Illuminated

Today's Extremes

State Highs State Lows

Community

WunderPhotos

Upload Photos

1,791,738 photos uploaded!

WunderBlogs® & News

Nearby

Air Quality

  Air Quality AQ Index Pollutant
Not available.

Snow Depth

Station Depth Elevation

Earthquake Activity

City Distance Mag. Time & Date
Minimum magnitude displayed is 2.5.

Coastal Water Temperatures

Place Temperature

Nearby Weather Stations